Time;durP1;ratioP1;P1;durP2;ratioP2;P2;SDS_P1;SDS_P2;PMS_P1;PMS_P2;Temp;Humidity;BMP_temperature;BMP_pressure;BME280_temperature;BME280_humidity;BME280_pressure;Samples;Min_cycle;Max_cycle;Signal;HPM_P1;HPM_P2
2021/05/08 00:00:11;;;;;;;8.43;4.60;;;;;;;-144.99;nan;52401.22;5030837;28;20637;-58
2021/05/08 00:02:37;;;;;;;11.97;3.63;;;;;;;-144.99;nan;52366.56;5030777;28;20635;-58
2021/05/08 00:05:10;;;;;;;9.97;3.77;;;;;;;-144.99;nan;52374.72;5027998;28;20668;-58
2021/05/08 00:07:36;;;;;;;13.73;5.03;;;;;;;-144.99;nan;52370.63;5023898;28;20571;-58
2021/05/08 00:10:06;;;;;;;15.53;6.10;;;;;;;-144.99;nan;52348.22;5031371;28;20656;-59
2021/05/08 00:12:33;;;;;;;10.80;3.10;;;;;;;-144.99;nan;52374.72;5023220;28;20623;-58
2021/05/08 00:14:59;;;;;;;6.90;3.23;;;;;;;-144.99;nan;52378.78;5026947;28;20677;-59
2021/05/08 00:17:28;;;;;;;13.77;4.53;;;;;;;-144.99;nan;52378.78;5027733;28;20632;-58
2021/05/08 00:19:57;;;;;;;8.23;4.33;;;;;;;-144.99;nan;52374.72;5028431;28;20653;-57
2021/05/08 00:22:26;;;;;;;13.67;4.70;;;;;;;-144.99;nan;52370.63;5027914;28;21213;-58
2021/05/08 00:24:52;;;;;;;8.50;3.53;;;;;;;-144.99;nan;52370.63;5029039;28;20620;-58
2021/05/08 00:27:19;;;;;;;9.63;6.37;;;;;;;-144.99;nan;52340.06;5028430;28;20663;-58
2021/05/08 00:29:45;;;;;;;11.40;3.23;;;;;;;-144.99;nan;52376.75;5032276;28;20229;-58
2021/05/08 00:32:11;;;;;;;11.67;4.13;;;;;;;-144.99;nan;52403.25;5029863;28;20678;-57
2021/05/08 00:34:37;;;;;;;13.70;4.40;;;;;;;-144.99;nan;52395.09;5029742;28;20570;-58
2021/05/08 00:37:03;;;;;;;7.37;3.73;;;;;;;-144.99;nan;52327.84;5027160;28;20202;-61
2021/05/08 00:39:29;;;;;;;10.37;3.73;;;;;;;-144.99;nan;52399.19;5032228;28;21248;-60
2021/05/08 00:41:58;;;;;;;10.57;3.30;;;;;;;-144.99;nan;52395.09;5028290;28;21205;-60
2021/05/08 00:44:27;;;;;;;10.13;4.77;;;;;;;-144.99;nan;52378.78;5027060;28;21154;-61
2021/05/08 00:47:00;;;;;;;9.80;3.30;;;;;;;-144.99;nan;52362.50;5029838;28;20739;-60
2021/05/08 00:49:28;;;;;;;15.73;4.30;;;;;;;-144.99;nan;52372.69;5028355;28;20657;-60
2021/05/08 00:51:56;;;;;;;12.70;4.70;;;;;;;-144.99;nan;52360.44;5029000;28;20631;-59
2021/05/08 00:54:23;;;;;;;17.53;6.53;;;;;;;-144.99;nan;52391.03;5030216;28;20656;-60
2021/05/08 00:56:49;;;;;;;9.80;4.83;;;;;;;-144.99;nan;52391.03;5027326;28;20691;-60
2021/05/08 00:59:15;;;;;;;19.97;4.13;;;;;;;-144.99;nan;52380.84;5029509;28;21225;-59
2021/05/08 01:01:43;;;;;;;9.87;3.67;;;;;;;-144.99;nan;52372.69;5028906;28;20620;-59
2021/05/08 01:04:15;;;;;;;11.23;4.00;;;;;;;-144.99;nan;52354.34;5029364;28;20628;-60
2021/05/08 01:06:41;;;;;;;14.20;4.47;;;;;;;-144.99;nan;52358.41;5025997;28;20636;-60
2021/05/08 01:09:08;;;;;;;16.53;4.37;;;;;;;-144.99;nan;52395.09;5029708;28;20676;-60
2021/05/08 01:11:36;;;;;;;20.30;4.97;;;;;;;-144.99;nan;52336.00;5028179;28;20626;-62
2021/05/08 01:14:05;;;;;;;11.77;5.00;;;;;;;-144.99;nan;52378.78;5029798;28;20631;-60
2021/05/08 01:16:34;;;;;;;12.83;5.73;;;;;;;-144.99;nan;52386.94;5023683;28;20621;-61
2021/05/08 01:19:01;;;;;;;13.00;4.43;;;;;;;-144.99;nan;52378.78;5029307;28;20645;-60
2021/05/08 01:21:28;;;;;;;17.37;4.60;;;;;;;-144.99;nan;52384.91;5027125;28;20616;-59
2021/05/08 01:23:54;;;;;;;8.63;3.87;;;;;;;-144.99;nan;52346.19;5029298;28;20679;-59
2021/05/08 01:26:23;;;;;;;13.03;4.77;;;;;;;-144.99;nan;52386.94;5028592;28;21026;-59
2021/05/08 01:28:49;;;;;;;12.87;4.90;;;;;;;-144.99;nan;52395.09;5029031;28;20680;-59
2021/05/08 01:31:18;;;;;;;7.57;4.70;;;;;;;-144.99;nan;52378.78;5028647;28;21209;-59
2021/05/08 01:33:47;;;;;;;7.17;3.37;;;;;;;-144.99;nan;52360.44;5028767;28;20629;-59
2021/05/08 01:36:13;;;;;;;9.33;3.80;;;;;;;-144.99;nan;52368.59;5026103;28;20636;-57
2021/05/08 01:38:40;;;;;;;8.50;4.03;;;;;;;-144.99;nan;52395.09;5028677;28;20640;-57
2021/05/08 01:41:12;;;;;;;11.03;4.03;;;;;;;-144.99;nan;52403.25;5025766;28;21189;-57
2021/05/08 01:43:43;;;;;;;13.13;4.17;;;;;;;-144.99;nan;52386.94;5026125;28;20648;-58
2021/05/08 01:46:09;;;;;;;10.97;5.07;;;;;;;-144.99;nan;52382.88;5028880;28;20625;-57
2021/05/08 01:48:35;;;;;;;8.60;4.57;;;;;;;-144.99;nan;52395.09;5026343;28;20681;-57
2021/05/08 01:51:01;;;;;;;4.80;3.10;;;;;;;-144.99;nan;52374.72;5029410;28;20628;-57
2021/05/08 01:53:27;;;;;;;8.47;3.40;;;;;;;-144.99;nan;52350.25;5029330;28;20636;-58
2021/05/08 01:55:57;;;;;;;9.77;4.13;;;;;;;-144.99;nan;52358.41;5028448;28;20640;-58
2021/05/08 01:58:23;;;;;;;7.90;5.00;;;;;;;-144.99;nan;52415.47;5026172;28;20652;-58
2021/05/08 02:00:49;;;;;;;11.73;4.37;;;;;;;-144.99;nan;52407.31;5025261;28;20624;-58
2021/05/08 02:03:19;;;;;;;14.20;5.33;;;;;;;-144.99;nan;52378.78;5027508;28;20704;-59
2021/05/08 02:05:50;;;;;;;9.67;4.40;;;;;;;-144.99;nan;52350.25;5025844;28;20748;-58
2021/05/08 02:08:16;;;;;;;6.33;4.23;;;;;;;-144.99;nan;52395.09;5026569;28;20683;-57
2021/05/08 02:10:48;;;;;;;14.07;5.30;;;;;;;-144.99;nan;52380.84;5028476;28;20620;-57
2021/05/08 02:13:15;;;;;;;10.83;4.73;;;;;;;-144.99;nan;52346.19;5027217;28;20636;-59
2021/05/08 02:15:42;;;;;;;9.13;5.13;;;;;;;-144.99;nan;52374.72;5024833;28;20683;-58
2021/05/08 02:18:09;;;;;;;9.33;3.50;;;;;;;-144.99;nan;52407.31;5027528;28;20616;-58
2021/05/08 02:20:39;;;;;;;9.63;3.87;;;;;;;-144.99;nan;52391.03;5026647;28;20630;-58
2021/05/08 02:23:08;;;;;;;8.40;4.23;;;;;;;-144.99;nan;52393.06;5028587;28;20631;-58
2021/05/08 02:25:34;;;;;;;10.97;4.57;;;;;;;-144.99;nan;52395.09;5031492;28;20620;-58
2021/05/08 02:28:03;;;;;;;6.53;4.03;;;;;;;-144.99;nan;52342.09;5032143;28;20660;-61
2021/05/08 02:30:34;;;;;;;11.13;4.67;;;;;;;-144.99;nan;52391.03;5032040;28;20651;-57
2021/05/08 02:33:04;;;;;;;10.77;5.30;;;;;;;-144.99;nan;52358.41;5032036;28;21080;-57
2021/05/08 02:35:31;;;;;;;10.50;4.30;;;;;;;-144.99;nan;52374.72;5026656;28;20628;-57
2021/05/08 02:37:58;;;;;;;9.50;3.87;;;;;;;-144.99;nan;52382.88;5032202;28;20613;-57
2021/05/08 02:40:26;;;;;;;11.50;4.47;;;;;;;-144.99;nan;52374.72;5032937;28;20640;-57
2021/05/08 02:42:55;;;;;;;11.27;5.53;;;;;;;-144.99;nan;52374.72;5032069;28;20621;-57
2021/05/08 02:45:25;;;;;;;8.27;5.07;;;;;;;-144.99;nan;52378.78;5028706;28;20632;-59
2021/05/08 02:47:52;;;;;;;8.07;3.67;;;;;;;-144.99;nan;52366.56;5031853;28;20661;-58
2021/05/08 02:50:22;;;;;;;13.17;5.50;;;;;;;-144.99;nan;52356.38;5029726;28;20652;-59
2021/05/08 02:52:48;;;;;;;5.10;3.57;;;;;;;-144.99;nan;52391.03;5030546;28;21198;-59
2021/05/08 02:55:18;;;;;;;10.90;4.53;;;;;;;-144.99;nan;52395.09;5026111;28;20621;-58
2021/05/08 02:57:47;;;;;;;12.00;9.43;;;;;;;-144.99;nan;52374.72;5029065;28;20627;-58
2021/05/08 03:00:17;;;;;;;4.80;3.80;;;;;;;-144.99;nan;52374.72;5030989;28;20659;-58
2021/05/08 03:02:47;;;;;;;8.30;4.07;;;;;;;-144.99;nan;52374.72;5030836;28;20632;-57
2021/05/08 03:05:14;;;;;;;9.33;3.50;;;;;;;-144.99;nan;52431.78;5028838;28;20651;-58
2021/05/08 03:07:43;;;;;;;10.07;5.37;;;;;;;-144.99;nan;52388.97;5029550;28;20656;-57
2021/05/08 03:10:10;;;;;;;11.77;4.20;;;;;;;-144.99;nan;52397.13;5030824;28;20648;-57
2021/05/08 03:12:37;;;;;;;13.87;5.53;;;;;;;-144.99;nan;52399.19;5030035;28;20628;-57
2021/05/08 03:15:07;;;;;;;14.23;4.67;;;;;;;-144.99;nan;52399.19;5027676;28;21034;-57
2021/05/08 03:17:36;;;;;;;22.23;5.37;;;;;;;-144.99;nan;52399.19;5025937;28;20620;-57
2021/05/08 03:20:02;;;;;;;12.57;4.50;;;;;;;-144.99;nan;52362.50;5029089;28;20648;-59
2021/05/08 03:22:29;;;;;;;12.07;4.20;;;;;;;-144.99;nan;52391.03;5031755;28;20674;-59
2021/05/08 03:24:55;;;;;;;12.97;5.17;;;;;;;-144.99;nan;52362.50;5030310;28;20624;-60
2021/05/08 03:27:22;;;;;;;7.73;4.53;;;;;;;-144.99;nan;52378.78;5028710;28;20628;-60
2021/05/08 03:29:51;;;;;;;9.90;4.17;;;;;;;-144.99;nan;52378.78;5033636;28;20991;-60
2021/05/08 03:32:17;;;;;;;7.13;4.83;;;;;;;-144.99;nan;52382.88;5030764;28;20981;-60
2021/05/08 03:34:45;;;;;;;10.57;4.87;;;;;;;-144.99;nan;52358.41;5030586;28;20995;-60
2021/05/08 03:37:11;;;;;;;4.80;3.23;;;;;;;-144.99;nan;52362.50;5027938;28;20718;-60
2021/05/08 03:39:38;;;;;;;11.70;4.03;;;;;;;-144.99;nan;52395.09;5023839;28;20653;-60
2021/05/08 03:42:05;;;;;;;10.30;4.23;;;;;;;-144.99;nan;52391.03;5030772;28;20675;-60
2021/05/08 03:44:31;;;;;;;10.93;4.63;;;;;;;-144.99;nan;52370.63;5028136;28;20682;-60
2021/05/08 03:46:58;;;;;;;14.90;5.57;;;;;;;-144.99;nan;52360.44;5030818;28;20977;-59
2021/05/08 03:49:29;;;;;;;14.70;5.30;;;;;;;-144.99;nan;52338.03;5028500;28;21260;-60
2021/05/08 03:52:02;;;;;;;14.37;5.70;;;;;;;-144.99;nan;52391.03;5031661;28;20986;-58
2021/05/08 03:54:31;;;;;;;6.90;4.57;;;;;;;-144.99;nan;52374.72;5027488;28;20648;-57
2021/05/08 03:56:59;;;;;;;12.17;5.73;;;;;;;-144.99;nan;52397.13;5024543;28;20628;-58
2021/05/08 03:59:31;;;;;;;8.43;4.70;;;;;;;-144.99;nan;52403.25;5030627;28;21071;-58
2021/05/08 04:01:57;;;;;;;8.43;4.63;;;;;;;-144.99;nan;52362.50;5028877;28;21223;-58
2021/05/08 04:04:25;;;;;;;6.83;4.33;;;;;;;-144.99;nan;52395.09;5027713;28;20621;-57
2021/05/08 04:06:51;;;;;;;5.07;4.40;;;;;;;-144.99;nan;52362.50;5026026;28;21177;-57
2021/05/08 04:09:18;;;;;;;6.73;4.60;;;;;;;-144.99;nan;52352.28;5030007;28;20672;-57
2021/05/08 04:11:44;;;;;;;7.53;3.80;;;;;;;-144.99;nan;52358.41;5028655;28;20632;-57
2021/05/08 04:14:11;;;;;;;14.43;5.70;;;;;;;-144.99;nan;52386.94;5030270;28;20613;-57
2021/05/08 04:16:43;;;;;;;8.67;5.43;;;;;;;-144.99;nan;52329.88;5025566;28;20620;-57
2021/05/08 04:19:12;;;;;;;24.23;7.20;;;;;;;-144.99;nan;52360.44;5030182;28;20648;-56
2021/05/08 04:21:38;;;;;;;12.83;5.17;;;;;;;-144.99;nan;52397.13;5030091;28;20621;-56
2021/05/08 04:24:08;;;;;;;12.70;4.97;;;;;;;-144.99;nan;52350.25;5027315;28;20624;-56
2021/05/08 04:26:37;;;;;;;9.90;7.17;;;;;;;-144.99;nan;52374.72;5030402;28;20624;-55
2021/05/08 04:29:03;;;;;;;22.57;5.07;;;;;;;-144.99;nan;52395.09;5029861;28;20677;-57
2021/05/08 04:31:30;;;;;;;8.93;5.50;;;;;;;-144.99;nan;52331.91;5030096;28;20635;-59
2021/05/08 04:33:59;;;;;;;11.80;7.53;;;;;;;-144.99;nan;52325.81;5030934;28;20629;-59
2021/05/08 04:36:25;;;;;;;9.00;5.70;;;;;;;-144.99;nan;52384.91;5027575;28;20993;-58
2021/05/08 04:38:54;;;;;;;15.07;6.57;;;;;;;-144.99;nan;52374.72;5030367;28;21209;-58
2021/05/08 04:41:23;;;;;;;18.93;5.97;;;;;;;-144.99;nan;52356.38;5029913;28;20632;-59
2021/05/08 04:43:49;;;;;;;14.03;5.33;;;;;;;-144.99;nan;52368.59;5027931;28;20671;-60
2021/05/08 04:46:18;;;;;;;12.93;6.27;;;;;;;-144.99;nan;52338.03;5030063;28;20631;-59
2021/05/08 04:48:47;;;;;;;13.57;5.40;;;;;;;-144.99;nan;52354.34;5027826;28;20692;-59
2021/05/08 04:51:13;;;;;;;11.43;5.27;;;;;;;-144.99;nan;52382.88;5030910;28;20632;-59
2021/05/08 04:53:49;;;;;;;16.00;6.13;;;;;;;-144.99;nan;52346.19;5029716;28;20623;-59
2021/05/08 04:56:15;;;;;;;10.63;6.33;;;;;;;-144.99;nan;52333.94;5023418;28;21104;-56
2021/05/08 04:58:41;;;;;;;8.23;6.00;;;;;;;-144.99;nan;52382.88;5028102;28;20649;-55
2021/05/08 05:01:10;;;;;;;10.63;5.90;;;;;;;-144.99;nan;52356.38;5028722;28;20628;-56
2021/05/08 05:03:36;;;;;;;13.53;7.33;;;;;;;-144.99;nan;52317.66;5028946;28;20621;-58
2021/05/08 05:06:04;;;;;;;18.23;9.40;;;;;;;-144.99;nan;52342.09;5023982;28;20655;-57
2021/05/08 05:08:30;;;;;;;11.73;5.60;;;;;;;-144.99;nan;52325.81;5026272;28;20676;-57
2021/05/08 05:10:59;;;;;;;20.47;9.67;;;;;;;-144.99;nan;52342.09;5029438;28;20698;-57
2021/05/08 05:13:26;;;;;;;13.73;5.90;;;;;;;-144.99;nan;52313.56;5027898;28;20621;-56
2021/05/08 05:15:55;;;;;;;11.97;6.60;;;;;;;-144.99;nan;52329.88;5023895;28;21150;-57
2021/05/08 05:18:21;;;;;;;13.03;5.77;;;;;;;-144.99;nan;52350.25;5027248;28;21042;-56
2021/05/08 05:20:47;;;;;;;13.33;6.60;;;;;;;-144.99;nan;52366.56;5026318;28;20627;-59
2021/05/08 05:23:14;;;;;;;6.17;4.70;;;;;;;-144.99;nan;52321.72;5028975;28;20629;-59
2021/05/08 05:25:40;;;;;;;12.87;7.50;;;;;;;-144.99;nan;52333.94;5028187;28;20461;-57
2021/05/08 05:28:24;;;;;;;11.17;5.97;;;;;;;-144.99;nan;52342.09;5029079;28;20663;-57
2021/05/08 05:30:51;;;;;;;10.33;5.87;;;;;;;-144.99;nan;52325.81;5028713;28;20640;-59
2021/05/08 05:33:17;;;;;;;12.27;5.17;;;;;;;-144.99;nan;52350.25;5028867;28;20625;-57
2021/05/08 05:35:46;;;;;;;11.73;6.57;;;;;;;-144.99;nan;52336.00;5025980;28;21206;-57
2021/05/08 05:38:13;;;;;;;12.83;6.17;;;;;;;-144.99;nan;52325.81;5029260;28;20979;-59
2021/05/08 05:40:39;;;;;;;14.03;5.93;;;;;;;-144.99;nan;52342.09;5029080;28;20640;-58
2021/05/08 05:43:05;;;;;;;12.37;5.43;;;;;;;-144.99;nan;52285.03;5028641;28;20998;-58
2021/05/08 05:45:34;;;;;;;13.90;6.40;;;;;;;-144.99;nan;52344.16;5025577;28;20667;-59
2021/05/08 05:48:02;;;;;;;13.47;4.63;;;;;;;-144.99;nan;52344.16;5038917;23;20998;-62
2021/05/08 05:50:32;;;;;;;10.03;5.87;;;;;;;-144.99;nan;52333.94;5027328;28;20676;-61
2021/05/08 05:53:00;;;;;;;17.83;6.40;;;;;;;-144.99;nan;52309.50;5029454;28;21033;-62
2021/05/08 05:55:27;;;;;;;9.90;6.03;;;;;;;-144.99;nan;52338.03;5018623;28;20620;-61
2021/05/08 05:57:57;;;;;;;16.13;4.80;;;;;;;-144.99;nan;52342.09;5023191;28;21105;-61
2021/05/08 06:00:23;;;;;;;12.27;6.33;;;;;;;-144.99;nan;52327.84;5023759;28;21149;-62
2021/05/08 06:02:50;;;;;;;14.23;5.23;;;;;;;-144.99;nan;52338.03;5030534;28;20206;-62
2021/05/08 06:05:16;;;;;;;8.33;5.20;;;;;;;-144.99;nan;52317.66;5032016;28;20214;-61
2021/05/08 06:07:44;;;;;;;13.00;4.83;;;;;;;-144.99;nan;52313.56;5028424;28;20633;-62
2021/05/08 06:10:12;;;;;;;10.90;5.00;;;;;;;-144.99;nan;52313.56;5025124;28;20237;-61
2021/05/08 06:12:45;;;;;;;12.80;5.50;;;;;;;-144.99;nan;52329.88;5032477;28;20766;-60
2021/05/08 06:15:14;;;;;;;14.43;5.70;;;;;;;-144.99;nan;52301.34;5025715;28;20589;-62
2021/05/08 06:17:40;;;;;;;10.57;5.20;;;;;;;-144.99;nan;52309.50;5025376;28;20210;-62
2021/05/08 06:20:11;;;;;;;11.80;3.67;;;;;;;-144.99;nan;52280.97;5030824;28;20222;-62
2021/05/08 06:22:37;;;;;;;12.53;5.40;;;;;;;-144.99;nan;52313.56;5023539;28;20627;-60
2021/05/08 06:25:04;;;;;;;15.80;5.20;;;;;;;-144.99;nan;52323.75;5020974;28;20664;-60
2021/05/08 06:27:33;;;;;;;6.40;4.37;;;;;;;-144.99;nan;52289.13;5026757;28;20206;-62
2021/05/08 06:30:03;;;;;;;12.63;5.87;;;;;;;-144.99;nan;52264.66;5031614;28;20230;-64
2021/05/08 06:32:32;;;;;;;14.80;5.67;;;;;;;-144.99;nan;52264.66;5029097;28;20206;-64
2021/05/08 06:35:00;;;;;;;14.50;6.20;;;;;;;-144.99;nan;52293.19;5027860;28;20336;-62
2021/05/08 06:37:26;;;;;;;14.73;5.83;;;;;;;-144.99;nan;52309.50;5031911;28;20206;-62
2021/05/08 06:39:53;;;;;;;8.47;4.63;;;;;;;-144.99;nan;52329.88;5030688;28;20529;-61
2021/05/08 06:42:22;;;;;;;14.07;5.40;;;;;;;-144.99;nan;52317.66;5030591;28;20541;-63
2021/05/08 06:44:53;;;;;;;11.37;5.93;;;;;;;-144.99;nan;52264.66;5033095;28;20217;-62
2021/05/08 06:47:24;;;;;;;11.03;4.33;;;;;;;-144.99;nan;52297.25;5029606;28;20211;-63
2021/05/08 06:49:50;;;;;;;12.10;4.37;;;;;;;-144.99;nan;52321.72;5026528;28;20230;-64
2021/05/08 06:52:18;;;;;;;8.57;5.47;;;;;;;-144.99;nan;52293.19;5024204;28;20210;-63
2021/05/08 06:54:44;;;;;;;15.67;4.80;;;;;;;-144.99;nan;52280.97;5030634;28;20210;-63
2021/05/08 06:57:13;;;;;;;8.00;4.97;;;;;;;-144.99;nan;52283.00;5023783;28;20227;-62
2021/05/08 06:59:39;;;;;;;10.40;4.87;;;;;;;-144.99;nan;52305.41;5024006;28;20605;-64
2021/05/08 07:02:08;;;;;;;11.90;3.83;;;;;;;-144.99;nan;52289.13;5031184;28;20210;-64
2021/05/08 07:04:41;;;;;;;9.27;4.03;;;;;;;-144.99;nan;52293.19;5029262;28;20206;-61
2021/05/08 07:07:07;;;;;;;9.37;3.53;;;;;;;-144.99;nan;52297.25;5025632;28;20211;-71
2021/05/08 07:09:33;;;;;;;6.33;3.33;;;;;;;-144.99;nan;52276.88;5031556;28;20257;-70
2021/05/08 07:11:59;;;;;;;10.57;3.83;;;;;;;-144.99;nan;52293.19;5036070;28;20217;-70
2021/05/08 07:14:28;;;;;;;8.40;3.50;;;;;;;-144.99;nan;52258.53;5037155;28;20210;-69
2021/05/08 07:16:57;;;;;;;14.30;4.10;;;;;;;-144.99;nan;52262.63;5026031;28;20306;-71
2021/05/08 07:19:23;;;;;;;8.73;5.93;;;;;;;-144.99;nan;52276.88;5031769;28;20233;-70
2021/05/08 07:21:50;;;;;;;9.30;5.33;;;;;;;-144.99;nan;52293.19;5032530;28;20210;-69
2021/05/08 07:24:16;;;;;;;7.70;2.63;;;;;;;-144.99;nan;52293.19;5031594;28;20236;-70
2021/05/08 07:26:48;;;;;;;10.07;2.73;;;;;;;-144.99;nan;52268.72;5029945;28;20291;-71
2021/05/08 07:29:14;;;;;;;7.87;2.90;;;;;;;-144.99;nan;52280.97;5030062;28;20234;-71
2021/05/08 07:31:40;;;;;;;8.57;2.67;;;;;;;-144.99;nan;52297.25;5026143;28;20221;-66
2021/05/08 07:34:06;;;;;;;8.47;2.53;;;;;;;-144.99;nan;52272.81;5024703;28;20210;-68
2021/05/08 07:36:38;;;;;;;6.20;2.70;;;;;;;-144.99;nan;52321.72;5031686;28;20210;-68
2021/05/08 07:39:06;;;;;;;7.33;3.70;;;;;;;-144.99;nan;52325.81;5022872;28;20222;-69
2021/05/08 07:41:35;;;;;;;6.87;2.97;;;;;;;-144.99;nan;52289.13;5014581;28;20237;-68
2021/05/08 07:44:08;;;;;;;9.60;3.30;;;;;;;-144.99;nan;52254.47;5026662;28;20224;-68
2021/05/08 07:46:34;;;;;;;7.27;2.87;;;;;;;-144.99;nan;52264.66;5024814;28;20540;-70
2021/05/08 07:49:00;;;;;;;6.97;2.57;;;;;;;-144.99;nan;52250.38;5017531;28;20744;-68
2021/05/08 07:51:29;;;;;;;7.57;3.40;;;;;;;-144.99;nan;52242.22;5028542;28;20210;-69
2021/05/08 07:53:55;;;;;;;10.17;3.57;;;;;;;-144.99;nan;52272.81;5029008;28;20214;-69
2021/05/08 07:56:25;;;;;;;8.87;2.80;;;;;;;-144.99;nan;52289.13;5029558;28;20627;-70
2021/05/08 07:58:51;;;;;;;5.37;2.43;;;;;;;-144.99;nan;52301.34;5024001;28;20477;-67
2021/05/08 08:01:21;;;;;;;6.67;3.00;;;;;;;-144.99;nan;52301.34;5026412;28;20225;-64
2021/05/08 08:03:47;;;;;;;8.97;2.50;;;;;;;-144.99;nan;52285.03;5020952;28;20238;-66
2021/05/08 08:06:13;;;;;;;10.70;2.60;;;;;;;-144.99;nan;52289.13;5028048;28;20222;-63
2021/05/08 08:08:39;;;;;;;5.73;2.73;;;;;;;-144.99;nan;52264.66;5021968;28;20288;-64
2021/05/08 08:11:06;;;;;;;7.33;2.73;;;;;;;-144.99;nan;52248.34;5023552;28;20695;-62
2021/05/08 08:13:32;;;;;;;8.77;4.80;;;;;;;-144.99;nan;52301.34;5021759;28;20397;-64
2021/05/08 08:16:01;;;;;;;6.20;1.60;;;;;;;-144.99;nan;52264.66;4332551;28;10000784;-64
2021/05/08 08:18:31;;;;;;;4.60;1.90;;;;;;;-144.99;nan;52295.22;5017108;28;20696;-63
2021/05/08 08:20:57;;;;;;;14.90;7.00;;;;;;;-144.99;nan;52272.81;5021551;28;20297;-62
2021/05/08 08:23:23;;;;;;;8.80;2.37;;;;;;;-144.99;nan;52266.69;5023712;28;20758;-66
2021/05/08 08:25:50;;;;;;;6.27;2.10;;;;;;;-144.99;nan;52264.66;5016813;28;20214;-62
2021/05/08 08:28:16;;;;;;;8.47;4.60;;;;;;;-144.99;nan;52280.97;5024158;28;20249;-64
2021/05/08 08:30:43;;;;;;;10.70;3.40;;;;;;;-144.99;nan;52285.03;5021187;28;20215;-62
2021/05/08 08:33:12;;;;;;;8.10;3.33;;;;;;;-144.99;nan;52268.72;5024358;28;20206;-63
2021/05/08 08:35:38;;;;;;;6.17;2.60;;;;;;;-144.99;nan;52236.13;5025585;28;20682;-63
2021/05/08 08:38:04;;;;;;;7.03;2.27;;;;;;;-144.99;nan;52227.97;5027347;28;20217;-63
2021/05/08 08:40:30;;;;;;;6.37;2.30;;;;;;;-144.99;nan;52272.81;5026575;28;20279;-64
2021/05/08 08:43:00;;;;;;;6.87;2.13;;;;;;;-144.99;nan;52254.47;5032271;28;20681;-65
2021/05/08 08:45:26;;;;;;;7.73;2.37;;;;;;;-144.99;nan;52211.66;5031519;28;20210;-64
2021/05/08 08:47:54;;;;;;;5.73;1.93;;;;;;;-144.99;nan;52236.13;5033251;28;20217;-64
2021/05/08 08:50:20;;;;;;;5.93;2.20;;;;;;;-144.99;nan;52238.16;5027828;28;20252;-64
2021/05/08 08:52:47;;;;;;;9.73;3.00;;;;;;;-144.99;nan;52219.81;5025568;28;20209;-64
2021/05/08 08:55:13;;;;;;;9.10;2.00;;;;;;;-144.99;nan;52223.88;5025117;28;20206;-65
2021/05/08 08:57:48;;;;;;;8.97;2.40;;;;;;;-144.99;nan;52234.09;5025143;28;20218;-64
2021/05/08 09:00:16;;;;;;;5.53;2.67;;;;;;;-144.99;nan;52240.19;5024252;28;20469;-65
2021/05/08 09:02:43;;;;;;;4.40;2.00;;;;;;;-144.99;nan;52242.22;5023221;28;20625;-63
2021/05/08 09:05:12;;;;;;;8.50;2.70;;;;;;;-144.99;nan;52262.63;5023653;28;20222;-65
2021/05/08 09:07:42;;;;;;;8.57;2.70;;;;;;;-144.99;nan;52252.44;5023379;28;20674;-64
2021/05/08 09:10:19;;;;;;;4.87;2.47;;;;;;;-144.99;nan;52236.13;5019239;28;20354;-65
2021/05/08 09:12:47;;;;;;;7.13;2.50;;;;;;;-144.99;nan;52266.69;5023644;28;20647;-67
2021/05/08 09:15:13;;;;;;;9.23;2.23;;;;;;;-144.99;nan;52244.28;5024304;28;20218;-64
2021/05/08 09:17:44;;;;;;;7.27;1.90;;;;;;;-144.99;nan;52280.97;5021923;28;20214;-63
2021/05/08 09:20:13;;;;;;;6.93;2.70;;;;;;;-144.99;nan;52232.03;5022124;28;20225;-64
2021/05/08 09:22:41;;;;;;;7.07;2.50;;;;;;;-144.99;nan;52272.81;5015021;28;20249;-66
2021/05/08 09:25:11;;;;;;;9.10;2.67;;;;;;;-144.99;nan;52258.53;5023364;28;20212;-66
2021/05/08 09:27:47;;;;;;;6.37;1.83;;;;;;;-144.99;nan;52254.47;5021941;28;20279;-64
2021/05/08 09:30:20;;;;;;;4.37;2.60;;;;;;;-144.99;nan;52227.97;5017730;28;20229;-65
2021/05/08 09:32:47;;;;;;;8.27;4.43;;;;;;;-144.99;nan;52240.19;5028788;28;20206;-63
2021/05/08 09:35:19;;;;;;;3.27;1.77;;;;;;;-144.99;nan;52177.00;5027369;28;20311;-65
2021/05/08 09:37:46;;;;;;;6.60;2.57;;;;;;;-144.99;nan;52197.41;5025472;28;20214;-65
2021/05/08 09:40:30;;;;;;;4.63;2.20;;;;;;;-144.99;nan;52244.28;5018562;28;20642;-65
2021/05/08 09:42:57;;;;;;;6.47;2.87;;;;;;;-144.99;nan;52234.09;5017741;28;20779;-65
2021/05/08 09:45:24;;;;;;;10.07;3.33;;;;;;;-144.99;nan;52191.28;5021085;28;20277;-67
2021/05/08 09:47:51;;;;;;;4.53;2.77;;;;;;;-144.99;nan;52297.25;5022935;28;20202;-65
2021/05/08 09:50:22;;;;;;;6.67;1.67;;;;;;;-144.99;nan;52211.66;5019550;28;20317;-65
2021/05/08 09:52:51;;;;;;;5.73;2.07;;;;;;;-144.99;nan;52260.56;5022750;28;20762;-65
2021/05/08 09:55:19;;;;;;;8.97;2.50;;;;;;;-144.99;nan;52248.34;5023083;28;20249;-64
2021/05/08 09:58:10;;;;;;;9.27;4.80;;;;;;;-144.99;nan;52244.28;5021554;28;20217;-64
2021/05/08 10:00:37;;;;;;;7.33;2.73;;;;;;;-144.99;nan;52158.66;5023874;28;20214;-65
2021/05/08 10:03:11;;;;;;;5.83;2.00;;;;;;;-144.99;nan;52232.03;5018298;28;20558;-64
2021/05/08 10:05:39;;;;;;;3.97;2.10;;;;;;;-144.99;nan;52260.56;5015765;28;20210;-65
2021/05/08 10:08:06;;;;;;;8.37;3.57;;;;;;;-144.99;nan;52187.19;5027546;28;20234;-64
2021/05/08 10:10:32;;;;;;;6.13;3.47;;;;;;;-144.99;nan;52258.53;5025244;28;20250;-63
2021/05/08 10:13:02;;;;;;;7.67;2.23;;;;;;;-144.99;nan;52244.28;5018842;28;20206;-64
2021/05/08 10:15:33;;;;;;;4.67;1.70;;;;;;;-144.99;nan;52252.44;5025816;28;20202;-64
2021/05/08 10:18:04;;;;;;;11.43;3.10;;;;;;;-144.99;nan;52238.16;5016922;28;20221;-64
2021/05/08 10:20:35;;;;;;;5.20;2.07;;;;;;;-144.99;nan;52207.59;5016732;28;20258;-65
2021/05/08 10:23:06;;;;;;;6.70;2.23;;;;;;;-144.99;nan;52232.03;5020997;28;20697;-65
2021/05/08 10:25:33;;;;;;;6.33;2.57;;;;;;;-144.99;nan;52268.72;5018794;28;20301;-66
2021/05/08 10:28:00;;;;;;;5.47;2.40;;;;;;;-144.99;nan;52187.19;5020116;28;20302;-65
2021/05/08 10:30:30;;;;;;;6.27;2.53;;;;;;;-144.99;nan;52203.50;5023690;28;20217;-64
2021/05/08 10:33:01;;;;;;;9.20;2.33;;;;;;;-144.99;nan;52252.44;5018037;28;20235;-65
2021/05/08 10:35:43;;;;;;;7.33;3.03;;;;;;;-144.99;nan;52209.63;5025666;28;20216;-64
2021/05/08 10:38:22;;;;;;;3.53;2.07;;;;;;;-144.99;nan;52205.53;5024186;28;20733;-65
2021/05/08 10:41:02;;;;;;;3.63;2.23;;;;;;;-144.99;nan;52154.59;5024320;28;20206;-63
2021/05/08 10:43:55;;;;;;;4.67;3.07;;;;;;;-144.99;nan;52162.75;5024213;28;20263;-65
2021/05/08 10:46:23;;;;;;;8.10;2.80;;;;;;;-144.99;nan;52195.34;5027604;28;20222;-64
2021/05/08 10:49:23;;;;;;;6.20;2.30;;;;;;;-144.99;nan;52187.19;5028363;28;20471;-64
2021/05/08 10:52:07;;;;;;;5.87;2.27;;;;;;;-144.99;nan;52140.31;5025386;28;20208;-64
2021/05/08 10:54:55;;;;;;;6.43;3.07;;;;;;;-144.99;nan;52130.13;5022582;28;20224;-65
2021/05/08 10:57:24;;;;;;;5.07;3.50;;;;;;;-144.99;nan;52142.38;5029083;28;20218;-63
2021/05/08 11:00:23;;;;;;;4.73;2.10;;;;;;;-144.99;nan;52109.75;5020831;28;20222;-63
2021/05/08 11:03:07;;;;;;;7.67;4.03;;;;;;;-144.99;nan;52097.53;5007930;28;20654;-64
2021/05/08 11:05:39;;;;;;;10.20;4.40;;;;;;;-144.99;nan;52130.13;5021161;28;20207;-67
2021/05/08 11:08:58;;;;;;;5.17;2.93;;;;;;;-144.99;nan;52146.44;5024128;28;20216;-63
2021/05/08 11:11:46;;;;;;;7.70;2.77;;;;;;;-144.99;nan;52154.59;5025284;28;20485;-66
2021/05/08 11:14:12;;;;;;;7.20;3.07;;;;;;;-144.99;nan;52166.81;5021626;28;20224;-64
2021/05/08 11:16:55;;;;;;;6.23;3.87;;;;;;;-144.99;nan;52203.50;5022089;28;20211;-65
2021/05/08 11:19:24;;;;;;;4.53;2.70;;;;;;;-144.99;nan;52142.38;5023550;28;20899;-64
2021/05/08 11:22:06;;;;;;;7.97;2.57;;;;;;;-144.99;nan;52121.97;5026793;28;20206;-65
2021/05/08 11:24:53;;;;;;;4.97;2.87;;;;;;;-144.99;nan;52093.44;5019108;28;20220;-63
2021/05/08 11:27:27;;;;;;;3.50;2.37;;;;;;;-144.99;nan;52142.38;5022073;28;20215;-64
2021/05/08 11:30:10;;;;;;;9.57;5.93;;;;;;;-144.99;nan;52185.16;5018083;28;20687;-65
2021/05/08 11:32:46;;;;;;;7.37;3.20;;;;;;;-144.99;nan;52168.84;5024905;28;20214;-64
2021/05/08 11:35:27;;;;;;;6.73;3.47;;;;;;;-144.99;nan;52128.09;5024837;28;20218;-66
2021/05/08 11:38:26;;;;;;;8.03;3.20;;;;;;;-144.99;nan;52170.91;5024349;28;20214;-64